North River — WYR2549 — position and weather

sailwx.info

Track history (hours):
 
Tides and Currents Weather Stations Pressure Air Temp Water Temp Dewpoint Dewpoint Depression Visibility Wind Speed Wind Dir Waves Ship Positions

North River

Owner: CITY OF NEW YORK, Brooklyn, NY. More information available from US FCC via Universal Licensing System and Coast Guard Vessel Documentation Center.

Last reported at 2018-Apr-17 20:00 UTC. Time now 2018-Apr-20 12:41 UTC.
Position N 40°47' W 073°56'.

Length 78 m.

Type: Tanker. MMSI: 367074110.

Date/timePositionNaut miles runAvg speedWind from/ knotsBaromVisibWave heightAir tempDewpointWater temp
2018-Apr-17 20:00N 40°47' W 073°56'5 9.3
2018-Apr-17 19:30N 40°43' W 073°59'4 8.0
2018-Apr-17 19:00N 40°46' W 074°00'4 7.4
2018-Apr-17 18:30N 40°50' W 073°58'0 0.0
2018-Apr-17 18:00N 40°50' W 073°58'0 0.0
2018-Apr-17 17:30N 40°50' W 073°58'0 0.0
2018-Apr-17 17:00N 40°50' W 073°58'1 1.6
2018-Apr-17 16:30N 40°49' W 073°58'713.7
2018-Apr-17 16:00N 40°43' W 074°01'5 9.6
2018-Apr-17 15:30N 40°46' W 073°57'2 0.1
2018-Apr-16 20:39N 40°47' W 073°55'1 8.5
2018-Apr-16 20:29N 40°46' W 073°57'510.9
2018-Apr-16 20:01N 40°42' W 074°00'611.5
2018-Apr-16 19:30N 40°39' W 074°07'1 1.4
2018-Apr-16 19:00N 40°38' W 074°08'0 0.0
2018-Apr-16 18:30N 40°38' W 074°08'0 0.0
2018-Apr-16 18:00N 40°38' W 074°08'0 0.0
2018-Apr-16 17:30N 40°38' W 074°08'0 0.0
2018-Apr-16 17:00N 40°38' W 074°08'3 6.6
2018-Apr-16 16:30N 40°39' W 074°03'612.7
2018-Apr-16 16:00N 40°45' W 074°01'5 9.3
2018-Apr-16 15:29N 40°49' W 073°58'0 0.0
2018-Apr-16 14:58N 40°49' W 073°58'0 0.0
2018-Apr-16 14:30N 40°49' W 073°58'0 0.0
2018-Apr-16 14:00N 40°49' W 073°58'0 0.0
2018-Apr-16 13:30N 40°49' W 073°58'4 8.4
2018-Apr-16 12:58N 40°46' W 074°01'3 7.4
2018-Apr-16 12:30N 40°43' W 073°59'5 0.3
2018-Apr-15 16:56N 40°47' W 073°56'4 8.4
2018-Apr-15 16:29N 40°44' W 073°58'2 4.7
2018-Apr-15 15:59N 40°44' W 074°01'612.5
2018-Apr-15 15:30N 40°49' W 073°58'0 0.4
2018-Apr-15 15:00N 40°50' W 073°58'0 0.0
2018-Apr-15 14:30N 40°50' W 073°58'0 0.0
2018-Apr-15 14:00N 40°50' W 073°58'0 0.0
2018-Apr-15 13:30N 40°50' W 073°58'2 4.9
2018-Apr-15 13:00N 40°47' W 073°59'510.3
2018-Apr-15 12:30N 40°42' W 073°60'510.2
2018-Apr-15 12:00N 40°47' W 073°56'1 1.5
2018-Apr-15 11:26N 40°47' W 073°55'  
Track history (hours):
 
Tides and Currents Weather Stations Pressure Air Temp Water Temp Dewpoint Dewpoint Depression Visibility Wind Speed Wind Dir Waves Ship Positions

North River

Owner: CITY OF NEW YORK, Brooklyn, NY. More information available from US FCC via Universal Licensing System and Coast Guard Vessel Documentation Center.

Last reported at 2018-Apr-17 20:00 UTC. Time now 2018-Apr-20 12:41 UTC.
Position N 40°47' W 073°56'.

Length 78 m.

Type: Tanker. MMSI: 367074110.

Date/timePositionNaut miles runAvg speedWind from/ knotsBaromVisibWave heightAir tempDewpointWater temp
2018-Apr-17 20:00N 40°47' W 073°56'5 9.3
2018-Apr-17 19:30N 40°43' W 073°59'4 8.0
2018-Apr-17 19:00N 40°46' W 074°00'4 7.4
2018-Apr-17 18:30N 40°50' W 073°58'0 0.0
2018-Apr-17 18:00N 40°50' W 073°58'0 0.0
2018-Apr-17 17:30N 40°50' W 073°58'0 0.0
2018-Apr-17 17:00N 40°50' W 073°58'1 1.6
2018-Apr-17 16:30N 40°49' W 073°58'713.7
2018-Apr-17 16:00N 40°43' W 074°01'5 9.6
2018-Apr-17 15:30N 40°46' W 073°57'2 0.1
2018-Apr-16 20:39N 40°47' W 073°55'1 8.5
2018-Apr-16 20:29N 40°46' W 073°57'510.9
2018-Apr-16 20:01N 40°42' W 074°00'611.5
2018-Apr-16 19:30N 40°39' W 074°07'1 1.4
2018-Apr-16 19:00N 40°38' W 074°08'0 0.0
2018-Apr-16 18:30N 40°38' W 074°08'0 0.0
2018-Apr-16 18:00N 40°38' W 074°08'0 0.0
2018-Apr-16 17:30N 40°38' W 074°08'0 0.0
2018-Apr-16 17:00N 40°38' W 074°08'3 6.6
2018-Apr-16 16:30N 40°39' W 074°03'612.7
2018-Apr-16 16:00N 40°45' W 074°01'5 9.3
2018-Apr-16 15:29N 40°49' W 073°58'0 0.0
2018-Apr-16 14:58N 40°49' W 073°58'0 0.0
2018-Apr-16 14:30N 40°49' W 073°58'0 0.0
2018-Apr-16 14:00N 40°49' W 073°58'0 0.0
2018-Apr-16 13:30N 40°49' W 073°58'4 8.4
2018-Apr-16 12:58N 40°46' W 074°01'3 7.4
2018-Apr-16 12:30N 40°43' W 073°59'5 0.3
2018-Apr-15 16:56N 40°47' W 073°56'4 8.4
2018-Apr-15 16:29N 40°44' W 073°58'2 4.7
2018-Apr-15 15:59N 40°44' W 074°01'612.5
2018-Apr-15 15:30N 40°49' W 073°58'0 0.4
2018-Apr-15 15:00N 40°50' W 073°58'0 0.0
2018-Apr-15 14:30N 40°50' W 073°58'0 0.0
2018-Apr-15 14:00N 40°50' W 073°58'0 0.0
2018-Apr-15 13:30N 40°50' W 073°58'2 4.9
2018-Apr-15 13:00N 40°47' W 073°59'510.3
2018-Apr-15 12:30N 40°42' W 073°60'510.2
2018-Apr-15 12:00N 40°47' W 073°56'1 1.5
2018-Apr-15 11:26N 40°47' W 073°55'  

Dump ship's entire track history